sensor_id;sensor_type;location;lat;lon;timestamp;temperature;humidity
54884;DHT22;40776;52.880;6.016;2023-06-14T06:05:59;19.30;99.90
54884;DHT22;40776;52.880;6.016;2023-06-14T06:10:52;19.50;99.90
54884;DHT22;40776;52.880;6.016;2023-06-14T06:13:19;19.60;99.90
54884;DHT22;40776;52.880;6.016;2023-06-14T06:15:44;19.80;99.90
54884;DHT22;40776;52.880;6.016;2023-06-14T06:27:57;20.30;99.90
54884;DHT22;40776;52.880;6.016;2023-06-14T06:40:09;20.90;99.90
54884;DHT22;40776;52.880;6.016;2023-06-14T06:42:35;21.10;99.90
54884;DHT22;40776;52.880;6.016;2023-06-14T06:45:01;21.40;99.90
54884;DHT22;40776;52.880;6.016;2023-06-14T06:47:27;21.50;99.90
54884;DHT22;40776;52.880;6.016;2023-06-14T07:02:03;21.90;98.50
54884;DHT22;40776;52.880;6.016;2023-06-14T07:06:55;22.20;98.80
54884;DHT22;40776;52.880;6.016;2023-06-14T07:16:42;22.50;98.60
54884;DHT22;40776;52.880;6.016;2023-06-14T07:19:08;22.60;97.80
54884;DHT22;40776;52.880;6.016;2023-06-14T07:24:07;23.00;97.80
54884;DHT22;40776;52.880;6.016;2023-06-14T07:26:34;23.10;97.80
54884;DHT22;40776;52.880;6.016;2023-06-14T07:29:00;23.30;97.00
54884;DHT22;40776;52.880;6.016;2023-06-14T07:31:26;23.10;97.10
54884;DHT22;40776;52.880;6.016;2023-06-14T07:33:52;23.20;96.10
54884;DHT22;40776;52.880;6.016;2023-06-14T07:36:18;23.20;97.00
54884;DHT22;40776;52.880;6.016;2023-06-14T07:38:44;23.20;96.00
54884;DHT22;40776;52.880;6.016;2023-06-14T07:46:02;23.60;97.10
54884;DHT22;40776;52.880;6.016;2023-06-14T07:48:28;23.60;95.90
54884;DHT22;40776;52.880;6.016;2023-06-14T07:50:53;24.00;95.70
54884;DHT22;40776;52.880;6.016;2023-06-14T07:53:19;24.10;96.30
54884;DHT22;40776;52.880;6.016;2023-06-14T07:55:45;24.00;95.00
54884;DHT22;40776;52.880;6.016;2023-06-14T07:58:12;24.30;95.00
54884;DHT22;40776;52.880;6.016;2023-06-14T08:00:38;24.40;95.00
54884;DHT22;40776;52.880;6.016;2023-06-14T08:03:04;24.50;94.60
54884;DHT22;40776;52.880;6.016;2023-06-14T08:05:30;25.80;95.20
54884;DHT22;40776;52.880;6.016;2023-06-14T08:07:56;24.70;94.70
54884;DHT22;40776;52.880;6.016;2023-06-14T08:10:22;24.70;94.20
54884;DHT22;40776;52.880;6.016;2023-06-14T08:12:48;24.60;94.10
54884;DHT22;40776;52.880;6.016;2023-06-14T08:15:16;24.40;95.20
54884;DHT22;40776;52.880;6.016;2023-06-14T08:17:45;24.40;94.10
54884;DHT22;40776;52.880;6.016;2023-06-14T08:20:12;24.40;93.60
54884;DHT22;40776;52.880;6.016;2023-06-14T08:22:37;24.30;94.00
54884;DHT22;40776;52.880;6.016;2023-06-14T08:25:03;26.00;94.40
54884;DHT22;40776;52.880;6.016;2023-06-14T08:27:30;24.50;93.60
54884;DHT22;40776;52.880;6.016;2023-06-14T08:29:56;25.00;93.90
54884;DHT22;40776;52.880;6.016;2023-06-14T08:32:22;25.10;93.80
54884;DHT22;40776;52.880;6.016;2023-06-14T08:34:48;26.10;93.60
54884;DHT22;40776;52.880;6.016;2023-06-14T08:37:13;25.00;93.30
54884;DHT22;40776;52.880;6.016;2023-06-14T08:39:39;25.50;93.70
54884;DHT22;40776;52.880;6.016;2023-06-14T08:42:05;24.90;93.50
54884;DHT22;40776;52.880;6.016;2023-06-14T08:44:33;24.90;93.60
54884;DHT22;40776;52.880;6.016;2023-06-14T08:47:00;25.30;93.20
54884;DHT22;40776;52.880;6.016;2023-06-14T08:49:26;26.80;93.30
54884;DHT22;40776;52.880;6.016;2023-06-14T08:52:01;25.30;93.20
54884;DHT22;40776;52.880;6.016;2023-06-14T08:54:30;25.50;92.80
54884;DHT22;40776;52.880;6.016;2023-06-14T08:56:57;25.40;92.70
54884;DHT22;40776;52.880;6.016;2023-06-14T08:59:26;25.30;92.10
54884;DHT22;40776;52.880;6.016;2023-06-14T09:01:53;25.20;92.30
54884;DHT22;40776;52.880;6.016;2023-06-14T09:04:20;25.60;92.70
54884;DHT22;40776;52.880;6.016;2023-06-14T09:06:47;25.40;92.50
54884;DHT22;40776;52.880;6.016;2023-06-14T09:09:22;25.70;92.60
54884;DHT22;40776;52.880;6.016;2023-06-14T09:11:51;25.50;91.80
54884;DHT22;40776;52.880;6.016;2023-06-14T09:14:23;25.80;92.50
54884;DHT22;40776;52.880;6.016;2023-06-14T09:16:52;25.60;91.50
54884;DHT22;40776;52.880;6.016;2023-06-14T09:19:21;25.70;91.90
54884;DHT22;40776;52.880;6.016;2023-06-14T09:21:48;25.90;92.30
54884;DHT22;40776;52.880;6.016;2023-06-14T09:24:14;25.80;91.80
54884;DHT22;40776;52.880;6.016;2023-06-14T09:26:40;25.90;91.40
54884;DHT22;40776;52.880;6.016;2023-06-14T09:29:06;26.10;91.50
54884;DHT22;40776;52.880;6.016;2023-06-14T09:31:32;26.10;91.40
54884;DHT22;40776;52.880;6.016;2023-06-14T09:33:58;25.80;91.30
54884;DHT22;40776;52.880;6.016;2023-06-14T09:36:27;25.60;91.10
54884;DHT22;40776;52.880;6.016;2023-06-14T09:41:36;25.50;90.90
54884;DHT22;40776;52.880;6.016;2023-06-14T09:44:03;25.60;91.90
54884;DHT22;40776;52.880;6.016;2023-06-14T09:46:30;25.70;92.10
54884;DHT22;40776;52.880;6.016;2023-06-14T09:48:59;25.90;91.60
54884;DHT22;40776;52.880;6.016;2023-06-14T09:51:27;26.10;90.30
54884;DHT22;40776;52.880;6.016;2023-06-14T09:53:55;25.80;91.10
54884;DHT22;40776;52.880;6.016;2023-06-14T09:56:28;26.10;91.60
54884;DHT22;40776;52.880;6.016;2023-06-14T09:58:57;26.20;91.80
54884;DHT22;40776;52.880;6.016;2023-06-14T10:01:28;26.20;91.50
54884;DHT22;40776;52.880;6.016;2023-06-14T10:04:03;26.50;91.30
54884;DHT22;40776;52.880;6.016;2023-06-14T10:06:29;26.70;91.40
54884;DHT22;40776;52.880;6.016;2023-06-14T10:08:59;26.80;91.20
54884;DHT22;40776;52.880;6.016;2023-06-14T10:11:26;27.40;91.50
54884;DHT22;40776;52.880;6.016;2023-06-14T10:13:52;26.60;90.60
54884;DHT22;40776;52.880;6.016;2023-06-14T10:16:32;26.20;90.90
54884;DHT22;40776;52.880;6.016;2023-06-14T10:19:11;26.30;90.80
54884;DHT22;40776;52.880;6.016;2023-06-14T10:21:49;26.40;90.00
54884;DHT22;40776;52.880;6.016;2023-06-14T10:24:20;26.20;90.30
54884;DHT22;40776;52.880;6.016;2023-06-14T10:26:53;26.40;91.50
54884;DHT22;40776;52.880;6.016;2023-06-14T10:29:19;26.50;91.70
54884;DHT22;40776;52.880;6.016;2023-06-14T10:31:56;26.50;91.20
54884;DHT22;40776;52.880;6.016;2023-06-14T10:34:25;26.80;90.90
54884;DHT22;40776;52.880;6.016;2023-06-14T10:37:05;26.70;90.60
54884;DHT22;40776;52.880;6.016;2023-06-14T10:39:32;26.60;91.60
54884;DHT22;40776;52.880;6.016;2023-06-14T10:41:58;26.70;91.30
54884;DHT22;40776;52.880;6.016;2023-06-14T10:46:58;27.00;91.70
54884;DHT22;40776;52.880;6.016;2023-06-14T10:49:45;26.60;90.90
54884;DHT22;40776;52.880;6.016;2023-06-14T10:52:12;26.90;91.30
54884;DHT22;40776;52.880;6.016;2023-06-14T11:00:09;26.50;90.30
54884;DHT22;40776;52.880;6.016;2023-06-14T11:11:10;26.70;91.80
54884;DHT22;40776;52.880;6.016;2023-06-14T11:13:39;26.60;91.70
54884;DHT22;40776;52.880;6.016;2023-06-14T11:16:16;26.80;91.20
54884;DHT22;40776;52.880;6.016;2023-06-14T11:18:42;26.70;91.60
54884;DHT22;40776;52.880;6.016;2023-06-14T11:21:09;26.70;91.60
54884;DHT22;40776;52.880;6.016;2023-06-14T11:23:35;26.80;91.80
54884;DHT22;40776;52.880;6.016;2023-06-14T11:26:01;26.70;91.20
54884;DHT22;40776;52.880;6.016;2023-06-14T11:28:40;26.70;91.60
54884;DHT22;40776;52.880;6.016;2023-06-14T11:31:07;26.70;91.40
54884;DHT22;40776;52.880;6.016;2023-06-14T11:33:34;26.80;91.30
54884;DHT22;40776;52.880;6.016;2023-06-14T11:36:02;27.00;92.10
54884;DHT22;40776;52.880;6.016;2023-06-14T11:40:59;26.70;90.60
54884;DHT22;40776;52.880;6.016;2023-06-14T11:45:52;26.60;91.50
54884;DHT22;40776;52.880;6.016;2023-06-14T11:50:49;27.10;91.70
54884;DHT22;40776;52.880;6.016;2023-06-14T11:53:15;26.90;91.20
54884;DHT22;40776;52.880;6.016;2023-06-14T11:58:10;26.90;89.60
54884;DHT22;40776;52.880;6.016;2023-06-14T12:00:36;27.00;91.10
54884;DHT22;40776;52.880;6.016;2023-06-14T12:05:29;27.30;91.50
54884;DHT22;40776;52.880;6.016;2023-06-14T12:07:59;27.50;91.30
54884;DHT22;40776;52.880;6.016;2023-06-14T12:12:59;27.40;88.60
54884;DHT22;40776;52.880;6.016;2023-06-14T12:15:28;28.00;89.30
54884;DHT22;40776;52.880;6.016;2023-06-14T12:22:55;27.60;89.80
54884;DHT22;40776;52.880;6.016;2023-06-14T12:25:48;27.60;91.20
54884;DHT22;40776;52.880;6.016;2023-06-14T12:30:40;27.40;88.60
54884;DHT22;40776;52.880;6.016;2023-06-14T12:35:33;27.40;90.80
54884;DHT22;40776;52.880;6.016;2023-06-14T12:45:18;27.40;91.00
54884;DHT22;40776;52.880;6.016;2023-06-14T12:50:10;27.60;90.90
54884;DHT22;40776;52.880;6.016;2023-06-14T12:55:03;28.00;90.50
54884;DHT22;40776;52.880;6.016;2023-06-14T12:57:29;27.90;90.90
54884;DHT22;40776;52.880;6.016;2023-06-14T12:59:55;27.80;90.50
54884;DHT22;40776;52.880;6.016;2023-06-14T13:02:20;27.70;91.10
54884;DHT22;40776;52.880;6.016;2023-06-14T13:04:49;27.70;91.30
54884;DHT22;40776;52.880;6.016;2023-06-14T13:07:14;28.00;90.90
54884;DHT22;40776;52.880;6.016;2023-06-14T13:12:08;28.30;90.80
54884;DHT22;40776;52.880;6.016;2023-06-14T13:17:00;27.50;90.60
54884;DHT22;40776;52.880;6.016;2023-06-14T13:19:26;28.00;90.90
54884;DHT22;40776;52.880;6.016;2023-06-14T13:26:44;28.10;90.70
54884;DHT22;40776;52.880;6.016;2023-06-14T13:29:10;27.80;90.70
54884;DHT22;40776;52.880;6.016;2023-06-14T13:31:35;28.00;90.90
54884;DHT22;40776;52.880;6.016;2023-06-14T13:34:01;27.80;90.80
54884;DHT22;40776;52.880;6.016;2023-06-14T13:36:27;27.90;91.00
54884;DHT22;40776;52.880;6.016;2023-06-14T13:38:53;28.10;90.80
54884;DHT22;40776;52.880;6.016;2023-06-14T13:41:20;28.30;90.70
54884;DHT22;40776;52.880;6.016;2023-06-14T13:43:46;28.20;91.00
54884;DHT22;40776;52.880;6.016;2023-06-14T13:46:12;27.90;90.60
54884;DHT22;40776;52.880;6.016;2023-06-14T13:48:38;28.30;90.60
54884;DHT22;40776;52.880;6.016;2023-06-14T13:51:03;28.20;90.30
54884;DHT22;40776;52.880;6.016;2023-06-14T13:53:30;28.20;90.40
54884;DHT22;40776;52.880;6.016;2023-06-14T13:55:56;28.30;90.70
54884;DHT22;40776;52.880;6.016;2023-06-14T13:58:22;28.30;90.50
54884;DHT22;40776;52.880;6.016;2023-06-14T14:00:48;28.70;90.30
54884;DHT22;40776;52.880;6.016;2023-06-14T14:03:14;28.40;90.60
54884;DHT22;40776;52.880;6.016;2023-06-14T14:05:41;28.50;90.30
54884;DHT22;40776;52.880;6.016;2023-06-14T14:08:07;28.60;89.70
54884;DHT22;40776;52.880;6.016;2023-06-14T14:10:33;28.60;87.00
54884;DHT22;40776;52.880;6.016;2023-06-14T14:12:58;28.90;87.50
54884;DHT22;40776;52.880;6.016;2023-06-14T14:15:25;28.60;87.40
54884;DHT22;40776;52.880;6.016;2023-06-14T14:17:50;28.70;87.20
54884;DHT22;40776;52.880;6.016;2023-06-14T14:20:17;28.90;87.40
54884;DHT22;40776;52.880;6.016;2023-06-14T14:22:43;29.30;87.30
54884;DHT22;40776;52.880;6.016;2023-06-14T14:25:09;29.80;86.20
54884;DHT22;40776;52.880;6.016;2023-06-14T14:27:35;30.00;85.40
54884;DHT22;40776;52.880;6.016;2023-06-14T14:30:01;30.00;85.00
54884;DHT22;40776;52.880;6.016;2023-06-14T14:32:27;30.30;85.80
54884;DHT22;40776;52.880;6.016;2023-06-14T14:34:53;30.60;85.20
54884;DHT22;40776;52.880;6.016;2023-06-14T14:37:19;30.90;83.90
54884;DHT22;40776;52.880;6.016;2023-06-14T14:39:46;30.50;83.80
54884;DHT22;40776;52.880;6.016;2023-06-14T14:42:12;31.00;83.90
54884;DHT22;40776;52.880;6.016;2023-06-14T14:44:39;31.20;82.90
54884;DHT22;40776;52.880;6.016;2023-06-14T14:47:05;31.20;82.80
54884;DHT22;40776;52.880;6.016;2023-06-14T14:49:32;31.20;83.20
54884;DHT22;40776;52.880;6.016;2023-06-14T14:51:58;30.30;83.40
54884;DHT22;40776;52.880;6.016;2023-06-14T14:54:23;29.90;84.00
54884;DHT22;40776;52.880;6.016;2023-06-14T14:56:51;29.30;85.10
54884;DHT22;40776;52.880;6.016;2023-06-14T14:59:17;29.30;84.90
54884;DHT22;40776;52.880;6.016;2023-06-14T15:01:44;29.80;83.90
54884;DHT22;40776;52.880;6.016;2023-06-14T15:04:10;30.30;82.30
54884;DHT22;40776;52.880;6.016;2023-06-14T15:06:37;30.70;81.50
54884;DHT22;40776;52.880;6.016;2023-06-14T15:09:04;31.60;81.80
54884;DHT22;40776;52.880;6.016;2023-06-14T15:11:30;31.90;81.30
54884;DHT22;40776;52.880;6.016;2023-06-14T15:13:56;31.90;79.60
54884;DHT22;40776;52.880;6.016;2023-06-14T15:16:21;32.30;80.90
54884;DHT22;40776;52.880;6.016;2023-06-14T15:18:47;31.90;79.90
54884;DHT22;40776;52.880;6.016;2023-06-14T15:21:13;31.90;79.80
54884;DHT22;40776;52.880;6.016;2023-06-14T15:23:38;32.40;78.80
54884;DHT22;40776;52.880;6.016;2023-06-14T15:26:04;32.60;78.80
54884;DHT22;40776;52.880;6.016;2023-06-14T15:28:30;32.90;79.60
54884;DHT22;40776;52.880;6.016;2023-06-14T15:30:58;33.40;78.90
54884;DHT22;40776;52.880;6.016;2023-06-14T15:33:24;33.20;77.90
54884;DHT22;40776;52.880;6.016;2023-06-14T15:35:50;32.40;78.60
54884;DHT22;40776;52.880;6.016;2023-06-14T15:38:16;31.80;80.10
54884;DHT22;40776;52.880;6.016;2023-06-14T15:40:41;32.20;77.70
54884;DHT22;40776;52.880;6.016;2023-06-14T15:43:07;32.70;78.20
54884;DHT22;40776;52.880;6.016;2023-06-14T15:45:33;32.20;78.10
54884;DHT22;40776;52.880;6.016;2023-06-14T15:47:58;33.00;78.10
54884;DHT22;40776;52.880;6.016;2023-06-14T15:50:25;32.70;78.60
54884;DHT22;40776;52.880;6.016;2023-06-14T15:52:51;33.10;78.10
54884;DHT22;40776;52.880;6.016;2023-06-14T15:55:18;33.40;77.00
54884;DHT22;40776;52.880;6.016;2023-06-14T15:57:43;33.70;77.70
54884;DHT22;40776;52.880;6.016;2023-06-14T16:00:10;33.10;76.30
54884;DHT22;40776;52.880;6.016;2023-06-14T16:02:36;33.40;75.90
54884;DHT22;40776;52.880;6.016;2023-06-14T16:05:01;31.80;79.00
54884;DHT22;40776;52.880;6.016;2023-06-14T16:07:27;30.40;80.80
54884;DHT22;40776;52.880;6.016;2023-06-14T16:09:53;29.60;82.30
54884;DHT22;40776;52.880;6.016;2023-06-14T16:12:19;29.20;83.60
54884;DHT22;40776;52.880;6.016;2023-06-14T16:14:47;30.40;81.60
54884;DHT22;40776;52.880;6.016;2023-06-14T16:17:15;30.40;80.50
54884;DHT22;40776;52.880;6.016;2023-06-14T16:19:41;30.20;82.40
54884;DHT22;40776;52.880;6.016;2023-06-14T16:22:06;30.70;82.10
54884;DHT22;40776;52.880;6.016;2023-06-14T16:24:32;30.80;80.50
54884;DHT22;40776;52.880;6.016;2023-06-14T16:26:58;31.40;80.00
54884;DHT22;40776;52.880;6.016;2023-06-14T16:29:24;32.00;79.70
54884;DHT22;40776;52.880;6.016;2023-06-14T16:31:50;32.00;79.00
54884;DHT22;40776;52.880;6.016;2023-06-14T16:34:15;32.60;78.90
54884;DHT22;40776;52.880;6.016;2023-06-14T16:36:43;32.70;77.70
54884;DHT22;40776;52.880;6.016;2023-06-14T16:39:08;33.30;77.70
54884;DHT22;40776;52.880;6.016;2023-06-14T16:41:34;32.80;77.30
54884;DHT22;40776;52.880;6.016;2023-06-14T16:44:00;33.00;77.00
54884;DHT22;40776;52.880;6.016;2023-06-14T16:46:32;33.40;76.50
54884;DHT22;40776;52.880;6.016;2023-06-14T16:48:58;33.20;77.30
54884;DHT22;40776;52.880;6.016;2023-06-14T16:51:24;32.90;76.90
54884;DHT22;40776;52.880;6.016;2023-06-14T16:53:50;31.70;79.00
54884;DHT22;40776;52.880;6.016;2023-06-14T16:56:19;30.40;80.50
54884;DHT22;40776;52.880;6.016;2023-06-14T16:58:45;29.60;82.20
54884;DHT22;40776;52.880;6.016;2023-06-14T17:01:11;29.30;83.30
54884;DHT22;40776;52.880;6.016;2023-06-14T17:03:37;30.20;81.10
54884;DHT22;40776;52.880;6.016;2023-06-14T17:06:03;31.00;80.60
54884;DHT22;40776;52.880;6.016;2023-06-14T17:08:29;30.90;79.50
54884;DHT22;40776;52.880;6.016;2023-06-14T17:10:55;31.00;79.40
54884;DHT22;40776;52.880;6.016;2023-06-14T17:13:28;30.10;80.50
54884;DHT22;40776;52.880;6.016;2023-06-14T17:15:54;29.50;79.90
54884;DHT22;40776;52.880;6.016;2023-06-14T17:18:19;28.30;87.00
54884;DHT22;40776;52.880;6.016;2023-06-14T17:20:45;27.70;87.90
54884;DHT22;40776;52.880;6.016;2023-06-14T17:23:11;27.60;88.40
54884;DHT22;40776;52.880;6.016;2023-06-14T17:25:37;27.20;89.90
54884;DHT22;40776;52.880;6.016;2023-06-14T17:28:03;27.40;87.50
54884;DHT22;40776;52.880;6.016;2023-06-14T17:30:31;27.90;85.90
54884;DHT22;40776;52.880;6.016;2023-06-14T17:32:57;28.80;85.60
54884;DHT22;40776;52.880;6.016;2023-06-14T17:35:23;29.50;86.10
54884;DHT22;40776;52.880;6.016;2023-06-14T17:37:49;28.90;87.10
54884;DHT22;40776;52.880;6.016;2023-06-14T17:40:15;28.50;83.80
54884;DHT22;40776;52.880;6.016;2023-06-14T17:42:41;29.00;85.00
54884;DHT22;40776;52.880;6.016;2023-06-14T17:45:07;29.60;85.50
54884;DHT22;40776;52.880;6.016;2023-06-14T17:47:32;30.20;83.90
54884;DHT22;40776;52.880;6.016;2023-06-14T17:49:58;30.20;82.90
54884;DHT22;40776;52.880;6.016;2023-06-14T17:52:25;30.60;82.80
54884;DHT22;40776;52.880;6.016;2023-06-14T17:54:51;31.20;81.00
54884;DHT22;40776;52.880;6.016;2023-06-14T17:57:17;31.60;81.00
54884;DHT22;40776;52.880;6.016;2023-06-14T17:59:43;31.50;81.60
54884;DHT22;40776;52.880;6.016;2023-06-14T18:02:08;31.10;81.80
54884;DHT22;40776;52.880;6.016;2023-06-14T18:04:34;30.80;82.10
54884;DHT22;40776;52.880;6.016;2023-06-14T18:07:00;30.90;83.00
54884;DHT22;40776;52.880;6.016;2023-06-14T18:09:26;30.40;84.20
54884;DHT22;40776;52.880;6.016;2023-06-14T18:11:53;29.50;84.70
54884;DHT22;40776;52.880;6.016;2023-06-14T18:14:19;28.20;85.20
54884;DHT22;40776;52.880;6.016;2023-06-14T18:16:45;26.80;91.00
54884;DHT22;40776;52.880;6.016;2023-06-14T18:19:10;26.50;91.30
54884;DHT22;40776;52.880;6.016;2023-06-14T18:24:08;25.80;91.10
54884;DHT22;40776;52.880;6.016;2023-06-14T18:26:35;25.00;95.80
54884;DHT22;40776;52.880;6.016;2023-06-14T18:31:27;24.00;98.30
54884;DHT22;40776;52.880;6.016;2023-06-14T18:48:31;23.20;99.90
54884;DHT22;40776;52.880;6.016;2023-06-14T18:55:52;22.60;99.90
54884;DHT22;40776;52.880;6.016;2023-06-14T19:00:45;22.70;99.90
